Time;durP1;ratioP1;P1;durP2;ratioP2;P2;SDS_P1;SDS_P2;PMS_P1;PMS_P2;Temp;Humidity;BMP_temperature;BMP_pressure;BME280_temperature;BME280_humidity;BME280_pressure;Samples;Min_cycle;Max_cycle;Signal;HPM_P1;HPM_P2
2022/05/16 00:00:57;;;;;;;33.77;28.20;;;;;;;16.90;100.00;99204.63;5012476;28;20658;-89
2022/05/16 00:03:24;;;;;;;35.57;28.33;;;;;;;19.13;100.00;99585.28;4995064;28;20167;-89
2022/05/16 00:05:50;;;;;;;34.87;28.47;;;;;;;17.77;100.00;99360.38;4994917;28;20181;-88
2022/05/16 00:08:15;;;;;;;35.77;29.13;;;;;;;18.38;100.00;99479.06;5012327;28;20194;-88
2022/05/16 00:10:41;;;;;;;35.70;29.70;;;;;;;17.18;100.00;99299.69;4994901;28;20619;-88
2022/05/16 00:13:06;;;;;;;37.80;30.63;;;;;;;18.52;100.00;99560.50;4995354;28;20562;-88
2022/05/16 00:15:32;;;;;;;36.97;30.27;;;;;;;18.76;100.00;99595.91;5012611;28;20558;-88
2022/05/16 00:17:57;;;;;;;36.70;30.77;;;;;;;18.63;100.00;99604.25;5012267;28;20309;-88
2022/05/16 00:20:23;;;;;;;37.50;31.03;;;;;;;18.62;100.00;99594.84;4994902;28;20169;-88
2022/05/16 00:22:49;;;;;;;41.73;32.97;;;;;;;17.93;100.00;99513.44;4994942;28;20166;-87
2022/05/16 00:25:18;;;;;;;38.53;32.90;;;;;;;18.42;100.00;99596.19;5012756;28;20163;-87
2022/05/16 00:27:44;;;;;;;42.77;33.43;;;;;;;17.77;100.00;99485.84;5012544;28;20273;-88
2022/05/16 00:30:14;;;;;;;41.53;33.60;;;;;;;18.23;100.00;99600.19;5012330;28;20204;-88
2022/05/16 00:32:40;;;;;;;39.20;32.57;;;;;;;15.53;100.00;99177.44;5012448;28;20163;-87
2022/05/16 00:35:08;;;;;;;41.57;32.97;;;;;;;16.25;100.00;99304.84;5012268;28;20166;-88
2022/05/16 00:37:33;;;;;;;41.73;33.23;;;;;;;16.76;100.00;99397.00;5012482;28;20158;-87
2022/05/16 00:39:59;;;;;;;41.07;33.13;;;;;;;15.94;100.00;99306.78;5012191;28;20167;-88
2022/05/16 00:42:24;;;;;;;46.50;34.43;;;;;;;17.14;100.00;99610.88;5011940;28;20158;-83
2022/05/16 00:44:50;;;;;;;43.13;33.83;;;;;;;14.74;100.00;99221.56;5011567;28;20170;-88
2022/05/16 00:47:16;;;;;;;46.23;34.93;;;;;;;14.60;100.00;99222.88;5012408;28;20634;-87
2022/05/16 00:49:45;;;;;;;49.60;38.00;;;;;;;16.74;100.00;99593.84;5012734;28;20163;-88
2022/05/16 00:52:17;;;;;;;50.47;38.27;;;;;;;15.74;100.00;99463.72;5025680;28;20174;-84
2022/05/16 00:54:50;;;;;;;50.90;37.27;;;;;;;14.78;100.00;99322.72;4999037;28;20171;-87
2022/05/16 00:57:18;;;;;;;52.73;39.43;;;;;;;13.58;100.00;99125.16;4993879;28;20199;-86
2022/05/16 00:59:53;;;;;;;52.40;38.47;;;;;;;13.89;100.00;99152.28;5011682;28;20697;-86
2022/05/16 01:05:06;;;;;;;54.27;39.83;;;;;;;16.34;100.00;99563.06;5011926;28;20697;-86
2022/05/16 01:07:35;;;;;;;55.47;39.83;;;;;;;16.50;100.00;99593.25;5011974;28;20659;-86
2022/05/16 01:10:02;;;;;;;54.17;38.27;;;;;;;16.05;100.00;99526.63;5011617;28;20241;-88
2022/05/16 01:12:42;;;;;;;51.43;38.03;;;;;;;16.45;100.00;99592.28;5011470;28;20552;-86
2022/05/16 01:15:13;;;;;;;47.23;34.47;;;;;;;16.57;100.00;99595.16;5013139;28;20245;-85
2022/05/16 01:17:39;;;;;;;45.67;34.07;;;;;;;15.13;100.00;99373.75;5019433;28;20219;-86
2022/05/16 01:20:07;;;;;;;42.30;32.60;;;;;;;14.54;100.00;99299.16;5004391;28;20197;-85
2022/05/16 01:22:43;;;;;;;42.43;30.77;;;;;;;16.42;100.00;99593.09;5014617;28;20171;-85
2022/05/16 01:25:15;;;;;;;40.50;30.30;;;;;;;16.51;100.00;99592.41;5016265;28;20182;-86
2022/05/16 01:28:04;;;;;;;44.93;31.47;;;;;;;16.68;100.00;99593.69;5016353;28;20191;-87
2022/05/16 01:30:40;;;;;;;41.47;31.23;;;;;;;16.81;100.00;99587.19;5015666;28;20163;-87
2022/05/16 01:33:06;;;;;;;43.07;31.57;;;;;;;14.10;100.00;99146.88;5015922;28;20556;-86
2022/05/16 01:35:33;;;;;;;40.77;32.33;;;;;;;16.55;100.00;99555.91;4997624;28;20236;-86
2022/05/16 01:40:43;;;;;;;48.83;37.30;;;;;;;15.95;100.00;99473.59;5016432;28;20240;-86
2022/05/16 01:43:10;;;;;;;50.60;36.87;;;;;;;15.14;100.00;99362.69;5015627;28;20653;-86
2022/05/16 01:45:36;;;;;;;51.63;37.87;;;;;;;16.49;100.00;99592.38;4997784;28;20178;-86
2022/05/16 01:48:02;;;;;;;50.67;37.67;;;;;;;16.05;100.00;99525.75;5015411;28;20209;-86
2022/05/16 01:50:28;;;;;;;48.90;37.23;;;;;;;16.27;100.00;99590.16;5015455;28;20162;-86
2022/05/16 01:52:53;;;;;;;49.13;36.43;;;;;;;13.94;100.00;99154.94;5015275;28;20237;-86
2022/05/16 01:55:19;;;;;;;48.47;35.93;;;;;;;14.56;100.00;99248.22;5014897;28;20174;-86
2022/05/16 01:57:44;;;;;;;46.90;35.37;;;;;;;16.90;100.00;99601.00;4997789;28;20225;-86
2022/05/16 02:00:14;;;;;;;43.13;33.03;;;;;;;16.98;100.00;99602.03;5014946;28;20528;-87
2022/05/16 02:02:44;;;;;;;44.83;32.70;;;;;;;15.01;100.00;99277.41;5015137;28;20560;-86
2022/05/16 02:05:12;;;;;;;44.83;32.67;;;;;;;16.93;100.00;99600.22;5014763;28;20616;-86
2022/05/16 02:07:38;;;;;;;42.07;32.73;;;;;;;14.68;100.00;99201.00;5014663;28;20190;-86
2022/05/16 02:10:06;;;;;;;43.43;32.47;;;;;;;16.29;100.00;99476.06;5014902;28;20173;-85
2022/05/16 02:12:31;;;;;;;45.23;34.00;;;;;;;15.36;100.00;99290.97;4997114;28;20178;-87
2022/05/16 02:14:57;;;;;;;37.57;28.10;;;;;;;14.03;100.00;99083.91;4997042;28;20216;-87
2022/05/16 02:17:22;;;;;;;32.30;24.80;;;;;;;16.49;100.00;99486.72;5014423;28;20218;-87
2022/05/16 02:19:47;;;;;;;31.70;24.30;;;;;;;17.07;100.00;99621.84;5014682;28;20232;-87
2022/05/16 02:24:57;;;;;;;28.63;22.80;;;;;;;14.76;100.00;99260.66;5014374;28;20174;-86
2022/05/16 02:27:22;;;;;;;26.63;20.57;;;;;;;13.89;100.00;99115.78;4995940;28;20174;-87
2022/05/16 02:29:47;;;;;;;26.63;20.67;;;;;;;16.69;100.00;99569.88;4997095;28;20171;-86
2022/05/16 02:32:13;;;;;;;25.33;19.83;;;;;;;16.39;100.00;99584.47;5013967;28;20177;-86
2022/05/16 02:34:40;;;;;;;29.20;20.77;;;;;;;16.07;100.00;99559.88;5014757;28;20175;-85
2022/05/16 02:37:07;;;;;;;27.17;20.83;;;;;;;14.31;100.00;99279.81;5014046;28;20689;-88
2022/05/16 02:39:33;;;;;;;29.10;21.23;;;;;;;16.25;100.00;99616.50;5014264;28;20162;-86
2022/05/16 02:41:58;;;;;;;27.80;21.23;;;;;;;15.72;100.00;99505.38;5014891;28;20225;-87
2022/05/16 02:44:24;;;;;;;26.63;20.40;;;;;;;15.61;100.00;99479.59;5014263;28;20173;-87
2022/05/16 02:46:49;;;;;;;29.33;21.13;;;;;;;13.33;100.00;99138.00;4997038;28;20620;-86
2022/05/16 02:49:15;;;;;;;26.47;20.70;;;;;;;13.58;100.00;99168.38;5014391;28;20570;-86
2022/05/16 02:51:40;;;;;;;27.03;20.90;;;;;;;13.65;100.00;99140.59;5001141;28;20174;-86
2022/05/16 02:54:06;;;;;;;28.30;21.07;;;;;;;14.38;100.00;99271.56;5017064;28;20692;-85
2022/05/16 02:56:31;;;;;;;28.87;21.03;;;;;;;16.21;100.00;99538.03;5013986;28;20183;-85
2022/05/16 02:58:57;;;;;;;28.00;21.07;;;;;;;15.45;100.00;99387.28;5013989;28;20220;-86
2022/05/16 03:01:23;;;;;;;27.17;20.90;;;;;;;16.59;100.00;99577.31;4996893;28;20163;-87
2022/05/16 03:03:48;;;;;;;27.67;20.50;;;;;;;14.01;100.00;99144.06;5014061;28;20249;-86
2022/05/16 03:06:13;;;;;;;26.57;19.93;;;;;;;15.87;100.00;99493.84;5014369;28;20162;-87
2022/05/16 03:08:40;;;;;;;26.30;18.90;;;;;;;14.29;100.00;99256.00;4997314;28;20705;-86
2022/05/16 03:11:06;;;;;;;25.70;19.40;;;;;;;14.58;100.00;99364.66;5017274;28;20177;-83
2022/05/16 03:13:31;;;;;;;23.50;18.37;;;;;;;16.01;100.00;99613.34;5001103;28;20679;-86
2022/05/16 03:15:58;;;;;;;22.67;17.70;;;;;;;13.02;100.00;99191.25;5014086;28;20190;-87
2022/05/16 03:18:24;;;;;;;23.80;18.00;;;;;;;15.59;100.00;99618.19;4995747;28;20606;-86
2022/05/16 03:20:51;;;;;;;25.83;17.77;;;;;;;13.48;100.00;99268.13;5014076;28;20253;-86
2022/05/16 03:23:16;;;;;;;22.73;17.50;;;;;;;13.92;100.00;99350.00;5014179;28;20597;-86
2022/05/16 03:25:41;;;;;;;25.00;18.30;;;;;;;14.05;100.00;99355.50;5013507;28;20224;-85
2022/05/16 03:28:07;;;;;;;26.73;19.23;;;;;;;13.46;100.00;99262.13;4996436;28;20730;-86
2022/05/16 03:30:35;;;;;;;28.20;20.10;;;;;;;14.84;100.00;99517.41;4996277;28;20194;-86
2022/05/16 03:33:00;;;;;;;28.37;22.07;;;;;;;15.59;100.00;99626.69;4995868;28;20170;-86
2022/05/16 03:35:26;;;;;;;32.77;22.37;;;;;;;13.58;100.00;99287.94;4996124;28;20527;-86
2022/05/16 03:37:51;;;;;;;30.53;20.80;;;;;;;13.78;100.00;99282.56;4995988;28;20182;-85
2022/05/16 03:43:00;;;;;;;27.23;20.90;;;;;;;14.50;100.00;99432.34;5015569;28;20173;-85
2022/05/16 03:45:26;;;;;;;26.20;19.97;;;;;;;15.30;100.00;99549.31;4997004;28;20179;-86
2022/05/16 03:47:51;;;;;;;27.93;20.30;;;;;;;14.24;100.00;99369.59;4996822;28;20213;-86
2022/05/16 03:50:18;;;;;;;25.70;19.00;;;;;;;14.29;100.00;99403.69;5015434;28;20173;-85
2022/05/16 03:52:44;;;;;;;26.77;19.60;;;;;;;15.81;100.00;99641.78;4996775;28;20194;-85
2022/05/16 03:55:13;;;;;;;26.03;18.60;;;;;;;15.76;100.00;99652.69;4993273;28;20201;-87
2022/05/16 03:57:40;;;;;;;27.27;19.77;;;;;;;15.84;100.00;99649.53;4998617;28;20230;-88
2022/05/16 04:00:12;;;;;;;25.07;19.77;;;;;;;16.19;100.00;99662.31;5012711;28;20175;-87
2022/05/16 04:02:39;;;;;;;25.37;19.13;;;;;;;15.52;100.00;99483.59;5012874;28;20178;-87
2022/05/16 04:05:07;;;;;;;22.20;18.37;;;;;;;16.00;100.00;99593.72;4995528;28;20635;-87
2022/05/16 04:07:33;;;;;;;24.33;18.43;;;;;;;15.79;100.00;99579.56;5012476;28;20667;-87
2022/05/16 04:09:59;;;;;;;25.23;18.67;;;;;;;16.54;100.00;99651.31;4995258;28;20663;-86
2022/05/16 04:12:25;;;;;;;23.00;16.60;;;;;;;16.03;100.00;99509.53;5011338;28;20179;-87
2022/05/16 04:14:52;;;;;;;24.57;17.77;;;;;;;16.24;100.00;99522.78;5021939;28;20174;-87
2022/05/16 04:17:17;;;;;;;24.73;17.00;;;;;;;16.60;100.00;99607.13;5009364;28;20245;-89
2022/05/16 04:19:43;;;;;;;21.47;17.00;;;;;;;15.82;100.00;99569.44;5011729;28;20194;-88
2022/05/16 04:22:08;;;;;;;22.20;16.03;;;;;;;16.70;100.00;99667.88;4994577;28;20190;-87
2022/05/16 04:24:34;;;;;;;21.63;16.83;;;;;;;16.75;100.00;99646.72;5012116;28;20190;-89
2022/05/16 04:27:00;;;;;;;23.80;16.70;;;;;;;15.42;100.00;99397.41;5011794;28;20256;-87
2022/05/16 04:29:25;;;;;;;22.00;17.30;;;;;;;16.71;99.47;99568.19;5011947;28;20242;-86
2022/05/16 04:31:51;;;;;;;23.27;17.10;;;;;;;15.80;99.86;99435.81;4994706;28;20285;-87
2022/05/16 04:34:16;;;;;;;22.50;17.00;;;;;;;16.27;98.35;99459.00;4995932;28;20191;-87
2022/05/16 04:36:42;;;;;;;21.70;16.17;;;;;;;15.79;97.54;99398.31;5013661;28;20190;-85
2022/05/16 04:39:07;;;;;;;20.57;16.30;;;;;;;17.17;100.00;99682.59;5020140;28;20262;-85
2022/05/16 04:44:17;;;;;;;20.77;16.23;;;;;;;15.60;96.77;99281.34;5013598;28;21010;-88
2022/05/16 04:46:43;;;;;;;23.30;16.50;;;;;;;17.92;96.52;99687.59;4994113;28;20186;-87
2022/05/16 04:49:09;;;;;;;23.20;16.47;;;;;;;16.00;95.84;99340.91;5011838;28;20198;-85
2022/05/16 04:51:34;;;;;;;22.10;17.17;;;;;;;18.23;95.59;99683.06;5011548;28;20693;-85
2022/05/16 04:53:59;;;;;;;19.27;15.60;;;;;;;16.51;94.56;99375.16;4993732;28;20182;-86
2022/05/16 04:56:25;;;;;;;25.27;16.07;;;;;;;18.39;94.66;99660.25;4983915;28;20238;-86
2022/05/16 04:58:50;;;;;;;21.83;16.53;;;;;;;17.04;94.72;99423.13;5015495;28;20704;-86
2022/05/16 05:01:16;;;;;;;27.17;17.90;;;;;;;17.45;93.44;99423.81;5016310;28;20194;-88
2022/05/16 05:03:42;;;;;;;22.97;16.93;;;;;;;17.93;92.20;99484.38;5016282;28;20193;-86
2022/05/16 05:06:08;;;;;;;18.67;16.00;;;;;;;17.14;92.35;99370.41;5015547;28;20213;-87
2022/05/16 05:08:33;;;;;;;19.93;15.50;;;;;;;18.41;92.15;99581.66;5014460;28;20242;-87
2022/05/16 05:16:28;;;;;;;21.10;14.63;;;;;;;19.33;90.98;99693.34;5015548;28;20833;-87
2022/05/16 05:18:53;;;;;;;21.90;15.57;;;;;;;18.23;90.35;99501.09;5014673;28;20226;-86
2022/05/16 05:21:19;;;;;;;23.03;14.80;;;;;;;18.41;89.60;99486.78;4997099;28;20670;-85
2022/05/16 05:23:45;;;;;;;24.87;15.87;;;;;;;19.12;90.23;99621.16;4996812;28;20670;-85
2022/05/16 05:26:11;;;;;;;20.30;15.77;;;;;;;19.60;89.24;99662.03;4997089;28;20198;-87
2022/05/16 05:28:37;;;;;;;19.83;14.70;;;;;;;18.72;88.51;99491.53;5015571;28;20225;-86
2022/05/16 05:31:03;;;;;;;20.10;15.17;;;;;;;20.15;88.15;99702.91;5022453;28;20178;-82
2022/05/16 05:33:29;;;;;;;21.40;15.87;;;;;;;18.98;87.91;99520.09;5019470;28;20248;-85
2022/05/16 05:35:54;;;;;;;19.90;15.33;;;;;;;19.22;87.26;99518.66;5015399;28;20182;-85
2022/05/16 05:38:20;;;;;;;22.33;15.90;;;;;;;20.39;85.61;99641.47;4996813;28;20256;-87
2022/05/16 05:40:46;;;;;;;22.47;16.33;;;;;;;19.66;86.01;99569.66;5018029;28;20186;-86
2022/05/16 05:43:12;;;;;;;20.40;16.33;;;;;;;19.16;86.03;99435.59;5016970;28;20189;-86
2022/05/16 05:45:37;;;;;;;18.70;15.63;;;;;;;19.19;87.12;99516.06;4997539;28;20281;-87
2022/05/16 05:48:04;;;;;;;19.87;15.87;;;;;;;19.51;88.85;99608.00;5015671;28;20233;-86
2022/05/16 05:50:30;;;;;;;19.33;15.30;;;;;;;19.86;87.53;99592.09;5001391;28;20195;-87
2022/05/16 05:52:56;;;;;;;22.03;16.27;;;;;;;20.50;87.69;99706.72;5034452;28;20209;-87
2022/05/16 05:55:22;;;;;;;20.20;16.07;;;;;;;18.08;86.01;99283.06;5034676;28;20673;-85
2022/05/16 05:57:47;;;;;;;19.30;15.77;;;;;;;20.35;85.67;99647.44;5020130;28;20242;-86
2022/05/16 06:00:13;;;;;;;22.90;16.77;;;;;;;20.58;87.11;99711.91;5015333;28;20189;-86
2022/05/16 06:02:41;;;;;;;19.00;15.50;;;;;;;19.47;85.06;99441.91;5014948;28;20659;-86
2022/05/16 06:05:11;;;;;;;19.67;16.17;;;;;;;20.26;84.56;99566.78;4996876;28;20191;-86
2022/05/16 06:07:37;;;;;;;18.93;15.50;;;;;;;20.25;85.40;99625.03;5013943;28;20278;-86
2022/05/16 06:10:04;;;;;;;25.50;16.63;;;;;;;21.33;83.36;99721.94;5014975;28;20687;-86
2022/05/16 06:12:30;;;;;;;21.00;16.70;;;;;;;21.74;81.51;99710.13;5015136;28;20182;-87
2022/05/16 06:14:55;;;;;;;21.50;16.50;;;;;;;21.88;81.05;99717.06;5014394;28;20183;-85
2022/05/16 06:17:21;;;;;;;20.53;17.30;;;;;;;21.19;79.49;99545.88;5013508;28;20218;-86
2022/05/16 06:19:47;;;;;;;22.07;17.07;;;;;;;21.52;79.07;99584.63;4997225;28;20217;-85
2022/05/16 06:22:13;;;;;;;18.77;15.17;;;;;;;21.88;78.41;99626.84;4996737;28;20667;-85
2022/05/16 06:27:22;;;;;;;18.17;15.73;;;;;;;21.26;79.16;99578.50;5014394;28;20198;-85
2022/05/16 06:29:48;;;;;;;19.33;15.37;;;;;;;22.23;79.10;99720.59;5014300;28;20568;-85
2022/05/16 06:32:13;;;;;;;32.10;16.23;;;;;;;21.27;79.53;99562.22;4996497;28;20187;-86
2022/05/16 06:34:39;;;;;;;18.37;15.10;;;;;;;22.15;79.38;99719.72;5013964;28;20763;-87
2022/05/16 06:37:05;;;;;;;18.40;14.83;;;;;;;21.17;78.36;99498.69;5014199;28;20244;-86
2022/05/16 06:39:30;;;;;;;19.63;14.37;;;;;;;22.63;76.19;99634.66;5014669;28;20187;-86
2022/05/16 06:41:56;;;;;;;17.97;14.87;;;;;;;22.34;76.52;99662.13;4997187;28;20272;-86
2022/05/16 06:44:21;;;;;;;16.10;14.23;;;;;;;22.75;76.48;99717.22;5016316;28;20183;-85
2022/05/16 06:46:48;;;;;;;16.43;14.63;;;;;;;22.04;77.36;99606.22;5016358;28;20682;-85
2022/05/16 06:49:13;;;;;;;18.17;14.60;;;;;;;22.83;77.03;99717.22;4995852;28;20325;-86
2022/05/16 06:51:40;;;;;;;19.37;14.87;;;;;;;20.63;75.28;99274.63;5009490;28;20717;-86
2022/05/16 06:54:06;;;;;;;16.13;14.10;;;;;;;23.20;74.54;99687.06;5033481;28;20182;-87
2022/05/16 06:56:31;;;;;;;16.90;14.67;;;;;;;19.85;74.43;99107.34;5024657;28;20308;-87
2022/05/16 06:58:57;;;;;;;16.57;14.10;;;;;;;22.76;74.92;99643.22;5020957;28;20250;-86
2022/05/16 07:01:22;;;;;;;16.97;13.87;;;;;;;23.82;73.76;99718.72;4995587;28;20198;-87
2022/05/16 07:03:48;;;;;;;15.80;14.10;;;;;;;23.41;72.21;99593.97;4995413;28;20248;-84
2022/05/16 07:06:14;;;;;;;14.63;13.23;;;;;;;22.72;72.38;99478.88;5011387;28;20182;-87
2022/05/16 07:08:41;;;;;;;19.73;14.43;;;;;;;22.26;73.46;99436.84;4994203;28;20202;-87
2022/05/16 07:11:08;;;;;;;18.23;15.63;;;;;;;24.03;72.60;99717.78;4994968;28;20208;-88
2022/05/16 07:13:34;;;;;;;24.03;16.03;;;;;;;22.21;73.44;99465.25;5013789;28;20187;-87
2022/05/16 07:16:00;;;;;;;17.03;14.87;;;;;;;24.09;71.67;99663.44;4994951;28;20190;-86
2022/05/16 07:18:27;;;;;;;17.93;15.10;;;;;;;24.72;70.75;99711.31;5012102;28;20669;-86
2022/05/16 07:20:53;;;;;;;16.43;14.60;;;;;;;24.27;70.14;99631.41;4995681;28;20186;-87
2022/05/16 07:23:18;;;;;;;15.87;14.17;;;;;;;25.12;69.29;99710.09;5012845;28;20186;-88
2022/05/16 07:28:29;;;;;;;17.47;14.93;;;;;;;21.88;71.31;99263.38;5013016;28;20261;-87
2022/05/16 07:30:58;;;;;;;18.57;14.90;;;;;;;24.21;69.67;99564.16;4993683;28;20682;-87
2022/05/16 07:33:23;;;;;;;17.23;15.20;;;;;;;22.58;68.60;99269.84;4994952;28;20187;-87
2022/05/16 07:35:50;;;;;;;16.43;14.73;;;;;;;24.84;69.72;99710.34;5012714;28;20190;-87
2022/05/16 07:38:17;;;;;;;16.73;15.03;;;;;;;22.71;70.17;99354.16;5011048;28;20187;-88
2022/05/16 07:40:46;;;;;;;16.93;15.13;;;;;;;23.81;68.86;99426.56;4995675;28;20198;-88
2022/05/16 07:43:11;;;;;;;16.70;15.00;;;;;;;25.26;69.21;99722.03;5013990;28;20183;-88
2022/05/16 07:45:38;;;;;;;16.50;14.83;;;;;;;23.67;68.77;99430.97;4995531;28;20192;-87
2022/05/16 07:48:04;;;;;;;17.30;14.60;;;;;;;24.87;69.60;99710.31;5000729;28;20222;-84
2022/05/16 07:57:04;;;;;;;16.87;14.97;;;;;;;23.23;65.03;99198.78;4869508;29;20423;-87
2022/05/16 07:59:34;;;;;;;15.57;13.97;;;;;;;26.70;64.73;99703.69;4873046;29;20190;-87
2022/05/16 08:03:04;;;;;;;19.97;15.03;;;;;;;24.34;63.54;99200.88;4851480;29;20388;-88
2022/05/16 08:05:47;;;;;;;17.35;15.55;;;;;;;23.21;63.38;99165.19;4855785;29;20231;-88
2022/05/16 08:10:59;;;;;;;19.40;14.93;;;;;;;25.67;64.94;99574.63;4820591;29;20682;-85
2022/05/16 08:13:24;;;;;;;16.13;14.13;;;;;;;27.07;63.49;99682.28;4820774;29;20842;-84
2022/05/16 08:15:50;;;;;;;15.38;13.77;;;;;;;27.14;62.87;99689.94;4800043;29;20197;-85
2022/05/16 08:18:15;;;;;;;16.40;14.63;;;;;;;24.94;64.31;99408.91;4823200;29;20244;-85
2022/05/16 08:20:46;;;;;;;16.27;14.50;;;;;;;25.59;64.70;99490.91;4835262;29;20201;-84
2022/05/16 08:23:17;;;;;;;15.57;14.07;;;;;;;26.10;64.58;99676.91;4821633;29;20204;-85
2022/05/16 08:25:44;;;;;;;17.57;14.33;;;;;;;25.76;63.08;99531.28;4837067;29;20195;-85
2022/05/16 08:32:37;;;;;;;16.37;14.23;;;;;;;26.44;62.96;99685.09;4803693;29;20666;-86
2022/05/16 08:46:06;;;;;;;;;;;;;;;;;;;;;
2022/05/16 08:49:26;;;;;;;15.15;13.20;;;;;;;24.04;58.58;99127.13;4794688;29;20344;-86
2022/05/16 08:55:53;;;;;;;14.55;13.05;;;;;;;27.85;56.01;99688.56;4813602;29;20205;-87
2022/05/16 09:48:44;;;;;;;10.18;7.40;;;;;;;28.84;42.48;99627.16;4838760;29;20230;-89
2022/05/16 09:58:54;;;;;;;16.10;7.80;;;;;;;29.71;38.59;99615.97;4914016;29;20211;-90
2022/05/16 10:02:18;;;;;;;21.90;8.27;;;;;;;29.68;38.66;99608.22;4979440;28;20210;-90
2022/05/16 10:04:49;;;;;;;9.27;7.15;;;;;;;28.08;40.33;99539.66;4992557;28;20191;-88
2022/05/16 10:13:53;;;;;;;8.13;7.32;;;;;;;27.56;41.93;99602.44;4838254;29;20211;-90
2022/05/16 10:20:13;;;;;;;9.57;7.82;;;;;;;27.67;41.49;99570.97;4816383;29;20284;-88
2022/05/16 10:29:57;;;;;;;10.13;7.47;;;;;;;28.87;38.65;99564.50;4766348;30;20301;-88
2022/05/16 10:40:06;;;;;;;;;;;;;;;;;;;;;
2022/05/16 10:53:42;;;;;;;7.43;6.68;;;;;;;28.27;37.08;99363.81;4715688;30;20284;-90
2022/05/16 11:00:23;;;;;;;9.60;6.38;;;;;;;29.18;35.91;99513.19;4661814;30;20631;-88
2022/05/16 11:03:42;;;;;;;8.77;6.43;;;;;;;27.67;34.72;99227.56;4674786;30;20201;-89
2022/05/16 11:06:29;;;;;;;9.02;6.28;;;;;;;28.81;34.62;99391.78;4615972;31;20510;-89
2022/05/16 11:09:37;;;;;;;;;;;;;;;;;;;;;
2022/05/16 11:13:00;;;;;;;8.88;6.38;;;;;;;27.34;33.04;99240.56;4660732;30;20213;-89
2022/05/16 11:15:43;;;;;;;10.23;6.25;;;;;;;27.85;32.86;99273.88;4614085;31;20212;-89
2022/05/16 11:18:45;;;;;;;8.45;6.28;;;;;;;29.50;32.84;99493.13;4635940;30;20455;-89
2022/05/16 11:21:49;;;;;;;;;;;;;;;;;;;;;
2022/05/16 11:36:17;;;;;;;;;;;;;;;;;;;;;
2022/05/16 12:11:19;;;;;;;;;;;;;;;;;;;;;
2022/05/16 12:14:37;;;;;;;7.57;5.80;;;;;;;35.63;25.48;99407.94;4798395;29;20300;-87
2022/05/16 12:24:49;;;;;;;8.73;4.18;;;;;;;32.52;22.52;99248.34;4768546;30;20199;-88
2022/05/16 12:27:47;;;;;;;4.72;4.30;;;;;;;31.39;24.12;99146.22;4774241;30;20516;-88
2022/05/16 12:30:46;;;;;;;7.15;4.20;;;;;;;33.23;23.89;99401.47;4797532;29;20222;-89
2022/05/16 12:33:42;;;;;;;7.70;4.60;;;;;;;34.06;23.53;99389.38;4771306;30;20268;-89
2022/05/16 12:36:51;;;;;;;5.72;4.40;;;;;;;33.94;22.78;99129.88;4768273;29;20202;-88
2022/05/16 12:39:58;;;;;;;5.60;4.97;;;;;;;35.22;23.11;99397.94;4769764;29;20265;-87
2022/05/16 12:42:49;;;;;;;5.07;4.43;;;;;;;34.74;22.52;99250.72;4786683;29;20210;-87
2022/05/16 12:45:52;;;;;;;9.60;4.85;;;;;;;35.08;22.31;99239.94;4837284;29;20245;-88
2022/05/16 12:48:39;;;;;;;6.18;4.40;;;;;;;36.05;21.51;99395.72;4841897;29;20227;-89
2022/05/16 12:51:14;;;;;;;5.05;4.40;;;;;;;37.22;21.48;99383.88;4855588;29;20743;-88
2022/05/16 12:53:51;;;;;;;6.90;4.30;;;;;;;36.64;21.69;99383.28;4869106;29;20224;-87
2022/05/16 12:56:24;;;;;;;5.00;4.40;;;;;;;36.60;22.34;99305.25;4993011;28;20297;-87
2022/05/16 12:59:09;;;;;;;8.45;4.60;;;;;;;38.07;21.17;99390.56;4975314;28;20192;-86
2022/05/16 13:01:43;;;;;;;9.88;4.82;;;;;;;39.32;20.36;99386.78;4974489;28;20194;-87
2022/05/16 13:04:27;;;;;;;9.02;4.97;;;;;;;39.51;21.35;99375.66;4991916;28;20551;-87
2022/05/16 13:07:21;;;;;;;7.35;4.90;;;;;;;39.42;20.44;99384.31;4991705;28;20675;-87
2022/05/16 13:09:52;;;;;;;5.43;4.75;;;;;;;38.49;20.85;99369.03;4911904;29;20753;-87
2022/05/16 13:12:47;;;;;;;7.25;4.80;;;;;;;39.01;20.76;99366.13;4913744;29;20221;-86
2022/05/16 13:15:44;;;;;;;6.03;4.85;;;;;;;39.20;20.46;99365.69;4860053;29;20187;-86
2022/05/16 13:18:16;;;;;;;8.38;4.72;;;;;;;39.69;20.62;99366.34;4861169;29;20622;-87
2022/05/16 13:20:44;;;;;;;7.95;4.70;;;;;;;38.22;20.04;99017.34;4861546;29;20377;-88
2022/05/16 13:23:10;;;;;;;7.10;4.88;;;;;;;40.70;19.60;99368.09;4859529;29;20755;-87
2022/05/16 13:29:21;;;;;;;4.68;4.18;;;;;;;39.58;18.86;99246.16;4860022;29;20207;-87
2022/05/16 13:31:07;;;;;;;6.97;4.35;;;;;;;39.58;19.17;99361.00;4859575;29;20279;-86
2022/05/16 13:33:36;;;;;;;6.13;4.40;;;;;;;39.72;19.03;99354.66;4859854;29;20331;-86
2022/05/16 13:36:17;;;;;;;5.05;4.38;;;;;;;39.73;19.21;99280.28;4860171;29;20194;-88
2022/05/16 13:38:43;;;;;;;6.30;4.63;;;;;;;39.93;19.00;99255.72;4844831;29;20207;-88
2022/05/16 13:41:09;;;;;;;6.38;4.28;;;;;;;39.07;18.19;99050.47;4858691;29;20250;-87
2022/05/16 13:43:34;;;;;;;5.10;4.47;;;;;;;39.00;19.30;99228.53;4859598;29;20270;-88
2022/05/16 13:46:05;;;;;;;5.00;4.43;;;;;;;40.63;19.16;99332.38;4883884;29;20242;-86
2022/05/16 13:48:31;;;;;;;6.80;4.82;;;;;;;39.96;19.26;99252.81;4899954;29;20241;-88
2022/05/16 13:50:59;;;;;;;5.93;4.30;;;;;;;40.68;18.64;99359.44;4920081;28;20594;-85
2022/05/16 13:53:26;;;;;;;5.72;4.65;;;;;;;38.50;19.06;99052.31;4976748;28;20195;-86
2022/05/16 13:55:53;;;;;;;9.35;5.00;;;;;;;40.20;19.31;99350.88;4995200;28;20186;-87
2022/05/16 13:58:19;;;;;;;8.02;4.70;;;;;;;40.41;19.66;99281.97;4995318;28;20690;-87
2022/05/16 14:00:50;;;;;;;8.40;5.05;;;;;;;39.53;19.27;99243.84;4992610;28;20190;-87
2022/05/16 14:03:29;;;;;;;5.45;4.28;;;;;;;38.43;19.96;99313.94;4994207;28;20175;-87
2022/05/16 14:05:55;;;;;;;5.57;4.15;;;;;;;38.93;20.11;99342.03;4993863;28;20187;-88
2022/05/16 14:08:40;;;;;;;6.95;4.55;;;;;;;39.88;19.33;99260.53;4976745;28;20215;-86
2022/05/16 14:11:15;;;;;;;4.65;3.97;;;;;;;40.69;17.61;99345.16;4993999;28;20191;-85
2022/05/16 14:13:45;;;;;;;9.55;4.25;;;;;;;41.13;17.91;99339.75;5001505;28;20181;-87
2022/05/16 14:16:17;;;;;;;9.27;4.40;;;;;;;42.23;17.64;99348.06;5014428;28;20186;-89
2022/05/16 14:19:08;;;;;;;7.32;4.68;;;;;;;44.01;16.87;99362.78;4997155;28;20189;-87
2022/05/16 14:21:58;;;;;;;7.63;5.28;;;;;;;42.17;18.34;99345.06;4989283;28;20241;-86
2022/05/16 14:24:31;;;;;;;7.45;5.40;;;;;;;40.18;19.02;99232.56;4997117;28;20171;-91
2022/05/16 14:26:56;;;;;;;7.20;4.80;;;;;;;38.09;20.80;99312.78;4977444;28;20187;-86
2022/05/16 14:29:29;;;;;;;6.07;4.87;;;;;;;36.10;22.99;99338.28;4993261;28;20986;-87
2022/05/16 14:32:08;;;;;;;9.82;5.63;;;;;;;33.87;26.83;99327.34;4976513;28;20197;-87
2022/05/16 14:34:47;;;;;;;13.63;6.65;;;;;;;31.49;29.99;99182.38;4976687;28;20203;-86
2022/05/16 14:37:22;;;;;;;12.38;7.20;;;;;;;30.87;33.47;99309.72;4975733;28;20187;-86
2022/05/16 14:39:51;;;;;;;12.13;7.88;;;;;;;29.89;34.96;99219.50;4999227;28;20276;-88
2022/05/16 14:42:19;;;;;;;11.02;7.95;;;;;;;30.26;35.37;99324.28;5012669;28;20288;-88
2022/05/16 14:44:54;;;;;;;11.95;8.45;;;;;;;29.96;36.32;99320.16;5014266;28;20325;-88
2022/05/16 14:47:26;;;;;;;16.63;9.07;;;;;;;28.98;36.82;99196.59;5024869;28;20185;-84
2022/05/16 14:49:52;;;;;;;11.73;9.13;;;;;;;29.59;37.81;99310.13;5004969;28;20217;-87
2022/05/16 14:52:25;;;;;;;12.32;9.18;;;;;;;29.53;37.41;99287.72;5012852;28;20192;-87
2022/05/16 14:55:09;;;;;;;10.50;8.77;;;;;;;28.67;37.38;99162.91;4994986;28;20185;-87
2022/05/16 14:57:37;;;;;;;14.35;9.95;;;;;;;29.01;39.17;99305.97;5012399;28;20232;-86
2022/05/16 15:00:05;;;;;;;11.20;10.10;;;;;;;27.95;40.00;99182.47;4996372;28;20186;-87
2022/05/16 15:05:14;;;;;;;13.93;10.05;;;;;;;27.67;40.31;99111.34;5012688;28;20222;-88
2022/05/16 15:07:42;;;;;;;11.90;9.55;;;;;;;27.37;40.06;99133.00;5011414;28;20194;-87
2022/05/16 15:10:11;;;;;;;12.85;9.60;;;;;;;28.37;40.61;99261.09;4995348;28;20207;-88
2022/05/16 15:12:36;;;;;;;12.80;9.60;;;;;;;28.71;40.50;99291.31;5012888;28;20217;-86